createdAt,value
2018-12-11T00:04:32.082Z,68.10
2018-12-11T00:08:36.167Z,68.30
2018-12-11T00:12:40.258Z,67.80
2018-12-11T00:16:44.613Z,67.80
2018-12-11T00:20:48.766Z,68.60
2018-12-11T00:24:52.849Z,68.00
2018-12-11T00:28:56.986Z,68.00
2018-12-11T00:33:01.134Z,67.50
2018-12-11T00:37:05.227Z,67.00
2018-12-11T00:41:09.383Z,67.10
2018-12-11T00:45:13.486Z,67.00
2018-12-11T00:49:17.549Z,66.40
2018-12-11T00:53:21.649Z,67.00
2018-12-11T00:57:25.724Z,67.40
2018-12-11T01:01:29.793Z,66.90
2018-12-11T01:05:33.853Z,66.70
2018-12-11T01:09:37.933Z,66.60
2018-12-11T01:13:42.024Z,66.80
2018-12-11T01:17:46.107Z,66.30
2018-12-11T01:21:50.198Z,65.40
2018-12-11T01:25:54.322Z,65.60
2018-12-11T01:29:58.385Z,65.10
2018-12-11T01:34:02.458Z,65.20
2018-12-11T01:38:06.865Z,65.50
2018-12-11T01:42:10.946Z,65.80
2018-12-11T01:46:15.001Z,65.10
2018-12-11T01:50:19.067Z,65.60
2018-12-11T01:54:23.177Z,63.90
2018-12-11T01:58:27.254Z,65.00
2018-12-11T02:02:31.316Z,64.50
2018-12-11T02:06:35.481Z,64.10
2018-12-11T02:10:39.567Z,64.90
2018-12-11T02:14:43.651Z,65.00
2018-12-11T02:18:48.734Z,64.70
2018-12-11T02:22:52.813Z,63.90
2018-12-11T02:26:57.004Z,64.60
2018-12-11T02:31:01.194Z,64.80
2018-12-11T02:35:06.565Z,64.60
2018-12-11T02:39:10.776Z,64.70
2018-12-11T02:43:14.836Z,64.80
2018-12-11T02:47:19.032Z,64.20
2018-12-11T02:51:23.246Z,64.60
2018-12-11T02:55:28.513Z,66.00
2018-12-11T02:59:32.641Z,65.20
2018-12-11T03:03:36.745Z,66.00
2018-12-11T03:07:40.830Z,65.70
2018-12-11T03:11:44.910Z,64.50
2018-12-11T03:15:49.076Z,63.70
2018-12-11T03:19:53.140Z,63.60
2018-12-11T03:23:57.216Z,63.40
2018-12-11T03:28:01.287Z,63.30
2018-12-11T03:32:05.635Z,62.90
2018-12-11T03:36:09.784Z,62.70
2018-12-11T03:40:14.013Z,63.10
2018-12-11T03:44:18.264Z,63.60
2018-12-11T03:48:22.484Z,63.00
2018-12-11T03:52:26.529Z,62.90
2018-12-11T03:56:30.655Z,63.00
2018-12-11T04:00:34.762Z,63.80
2018-12-11T04:04:38.988Z,64.10
2018-12-11T04:08:43.061Z,64.10
2018-12-11T04:12:47.122Z,63.30
2018-12-11T04:16:51.185Z,63.60
2018-12-11T04:20:55.261Z,62.50
2018-12-11T04:24:59.338Z,62.60
2018-12-11T04:29:03.409Z,63.20
2018-12-11T04:33:07.520Z,62.90
2018-12-11T04:37:11.694Z,62.90
2018-12-11T04:41:15.776Z,62.00
2018-12-11T04:45:19.978Z,61.70
2018-12-11T04:49:24.065Z,61.80
2018-12-11T04:53:28.125Z,61.30
2018-12-11T04:57:32.208Z,61.50
2018-12-11T05:01:36.306Z,63.20
2018-12-11T05:05:40.427Z,63.00
2018-12-11T05:09:44.476Z,62.40
2018-12-11T05:13:48.545Z,63.00
2018-12-11T05:17:52.721Z,63.50
2018-12-11T05:21:56.798Z,63.10
2018-12-11T05:26:00.931Z,63.50
2018-12-11T05:30:07.389Z,63.10
2018-12-11T05:34:12.289Z,62.80
2018-12-11T05:38:16.349Z,62.80
2018-12-11T05:42:20.447Z,62.90
2018-12-11T05:46:24.616Z,63.20
2018-12-11T05:50:28.735Z,62.10
2018-12-11T05:54:32.889Z,62.80
2018-12-11T05:58:37.086Z,62.40
2018-12-11T06:02:41.162Z,63.40
2018-12-11T06:06:45.241Z,63.20
2018-12-11T06:10:49.353Z,63.50
2018-12-11T06:14:53.405Z,63.70
2018-12-11T06:18:57.581Z,63.80
2018-12-11T06:23:01.937Z,63.60
2018-12-11T06:27:06.017Z,64.00
2018-12-11T06:31:10.162Z,63.30
2018-12-11T06:35:14.277Z,63.40
2018-12-11T06:39:18.335Z,64.10
2018-12-11T06:43:22.405Z,63.60
2018-12-11T06:47:26.626Z,63.80
2018-12-11T06:51:30.703Z,63.40
2018-12-11T06:55:34.888Z,63.40
2018-12-11T06:59:38.956Z,63.50
2018-12-11T07:03:43.040Z,62.70
2018-12-11T07:07:47.170Z,63.30
2018-12-11T07:11:51.253Z,63.50
2018-12-11T07:15:55.375Z,63.90
2018-12-11T07:20:00.319Z,63.20
2018-12-11T07:24:04.412Z,63.10
2018-12-11T07:28:08.515Z,63.00
2018-12-11T07:32:12.649Z,62.90
2018-12-11T07:36:16.712Z,63.10
2018-12-11T07:40:20.798Z,62.90
2018-12-11T07:44:24.886Z,62.80
2018-12-11T07:48:28.969Z,63.00
2018-12-11T07:52:33.033Z,62.40
2018-12-11T07:56:37.246Z,62.50
2018-12-11T08:00:41.394Z,62.50
2018-12-11T08:04:45.464Z,61.90
2018-12-11T08:08:49.597Z,61.10
2018-12-11T08:12:53.652Z,62.80
2018-12-11T08:16:57.800Z,63.50
2018-12-11T08:21:02.003Z,64.20
2018-12-11T08:25:06.764Z,65.00
2018-12-11T08:29:10.830Z,64.50
2018-12-11T08:33:14.909Z,65.20
2018-12-11T08:37:18.988Z,65.00
2018-12-11T08:41:23.113Z,65.90
2018-12-11T08:45:27.165Z,65.70
2018-12-11T08:49:31.225Z,65.90
2018-12-11T08:53:35.385Z,65.00
2018-12-11T08:57:39.729Z,64.80
2018-12-11T09:01:43.806Z,63.30
2018-12-11T09:05:47.887Z,62.70
2018-12-11T09:09:51.941Z,62.50
2018-12-11T09:13:56.092Z,62.20
2018-12-11T09:18:00.225Z,61.40
2018-12-11T09:22:04.326Z,61.70
2018-12-11T09:26:08.601Z,61.10
2018-12-11T09:30:12.744Z,62.50
2018-12-11T09:34:18.214Z,63.50
2018-12-11T09:38:22.629Z,63.30
2018-12-11T09:42:28.100Z,64.00
2018-12-11T09:46:32.376Z,62.60
2018-12-11T09:50:36.574Z,64.20
2018-12-11T09:54:40.654Z,63.00
2018-12-11T09:58:44.738Z,64.60
2018-12-11T10:02:48.901Z,64.70
2018-12-11T10:06:53.064Z,64.20
2018-12-11T10:10:57.150Z,65.30
2018-12-11T10:15:01.225Z,64.90
2018-12-11T10:19:05.364Z,63.60
2018-12-11T10:23:09.993Z,62.70
2018-12-11T10:27:14.138Z,64.20
2018-12-11T10:31:18.220Z,63.80
2018-12-11T10:35:22.444Z,60.50
2018-12-11T10:39:26.496Z,58.20
2018-12-11T10:43:30.673Z,58.50
2018-12-11T10:47:34.810Z,59.70
2018-12-11T10:51:38.910Z,59.00
2018-12-11T10:55:42.990Z,59.70
2018-12-11T10:59:47.045Z,59.60
2018-12-11T11:03:51.502Z,59.60
2018-12-11T11:07:56.023Z,60.20
2018-12-11T11:12:00.103Z,58.60
2018-12-11T11:16:04.315Z,59.60
2018-12-11T11:20:08.505Z,59.80
2018-12-11T11:24:12.615Z,62.10
2018-12-11T11:28:16.797Z,61.60
2018-12-11T11:32:20.909Z,59.10
2018-12-11T11:36:25.845Z,62.40
2018-12-11T11:40:29.993Z,60.80
2018-12-11T11:44:34.142Z,58.90
2018-12-11T11:48:39.403Z,63.50
2018-12-11T11:52:43.494Z,61.50
2018-12-11T11:56:47.566Z,62.70
2018-12-11T12:00:51.653Z,57.20
2018-12-11T12:04:55.781Z,61.00
2018-12-11T12:08:59.866Z,64.00
2018-12-11T12:13:04.045Z,59.40
2018-12-11T12:17:08.166Z,63.30
2018-12-11T12:21:12.236Z,58.90
2018-12-11T12:25:16.341Z,62.70
2018-12-11T12:29:20.447Z,58.40
2018-12-11T12:33:24.533Z,59.80
2018-12-11T12:37:28.620Z,56.80
2018-12-11T12:41:32.799Z,52.00
2018-12-11T12:45:36.893Z,56.40
2018-12-11T12:49:41.032Z,55.90
2018-12-11T12:53:45.164Z,54.00
2018-12-11T12:57:49.245Z,58.20
2018-12-11T13:01:53.384Z,58.90
2018-12-11T13:05:57.484Z,57.80
2018-12-11T13:10:01.545Z,60.80
2018-12-11T13:14:06.690Z,55.30
2018-12-11T13:18:10.819Z,61.60
2018-12-11T13:22:14.904Z,61.70
2018-12-11T13:26:19.043Z,63.50
2018-12-11T13:30:23.148Z,64.60
2018-12-11T13:34:27.209Z,63.30
2018-12-11T13:38:31.289Z,64.50
2018-12-11T13:42:35.537Z,64.80
2018-12-11T13:46:39.700Z,61.10
2018-12-11T13:50:43.835Z,63.30
2018-12-11T13:54:47.921Z,66.00
2018-12-11T13:58:52.006Z,61.70
2018-12-11T14:02:56.081Z,61.70
2018-12-11T14:07:00.191Z,61.90
2018-12-11T14:11:04.413Z,64.10
2018-12-11T14:15:08.925Z,58.00
2018-12-11T14:19:12.997Z,57.70
2018-12-11T14:23:17.071Z,59.30
2018-12-11T14:27:21.156Z,61.10
2018-12-11T14:31:25.216Z,57.40
2018-12-11T14:35:29.328Z,58.30
2018-12-11T14:39:33.544Z,59.00
2018-12-11T14:43:37.617Z,59.70
2018-12-11T14:47:41.696Z,60.20
2018-12-11T14:51:46.357Z,59.70
2018-12-11T14:55:50.455Z,59.20
2018-12-11T14:59:54.541Z,59.60
2018-12-11T15:03:58.653Z,60.70
2018-12-11T15:08:02.842Z,59.40
2018-12-11T15:12:06.909Z,59.00
2018-12-11T15:16:11.249Z,58.90
2018-12-11T15:20:15.417Z,59.00
2018-12-11T15:24:19.554Z,59.10
2018-12-11T15:28:23.628Z,58.60
2018-12-11T15:32:27.749Z,58.40
2018-12-11T15:36:31.822Z,58.70
2018-12-11T15:40:35.976Z,58.80
2018-12-11T15:44:40.034Z,59.50
2018-12-11T15:48:44.285Z,59.30
2018-12-11T15:52:48.357Z,58.30
2018-12-11T15:56:52.726Z,59.10
2018-12-11T16:00:56.815Z,59.10
2018-12-11T16:05:00.878Z,59.30
2018-12-11T16:13:34.441Z,58.10
2018-12-11T16:17:38.546Z,58.40
2018-12-11T16:21:42.644Z,57.90
2018-12-11T16:26:05.421Z,58.60
2018-12-11T16:30:10.781Z,58.40
2018-12-11T16:34:14.864Z,59.10
2018-12-11T16:38:47.125Z,59.90
2018-12-11T16:42:51.208Z,58.80
2018-12-11T16:46:55.352Z,58.30
2018-12-11T16:55:20.696Z,58.00
2018-12-11T17:03:48.957Z,57.40
2018-12-11T17:07:53.025Z,57.40
2018-12-11T17:11:57.281Z,57.20
2018-12-11T17:16:01.360Z,56.90
2018-12-11T17:20:06.857Z,57.20
2018-12-11T17:28:49.057Z,57.60
2018-12-11T17:32:53.153Z,57.10
2018-12-11T17:36:57.262Z,57.10
2018-12-11T17:41:01.426Z,57.10
2018-12-11T17:45:06.766Z,56.90
2018-12-11T17:49:10.855Z,56.60
2018-12-11T17:53:14.937Z,56.90
2018-12-11T17:57:47.076Z,56.30
2018-12-11T18:10:49.110Z,56.70
2018-12-11T18:14:53.189Z,56.20
2018-12-11T18:18:57.285Z,56.20
2018-12-11T18:23:01.374Z,56.10
2018-12-11T18:27:05.731Z,56.20
2018-12-11T18:31:09.794Z,55.60
2018-12-11T18:35:15.914Z,56.50
2018-12-11T18:39:20.094Z,56.30
2018-12-11T18:43:24.206Z,56.50
2018-12-11T18:47:50.109Z,57.00
2018-12-11T18:56:11.293Z,57.10
2018-12-11T19:00:15.724Z,58.40
2018-12-11T19:04:19.893Z,58.70
2018-12-11T19:08:23.998Z,59.60
2018-12-11T19:12:28.086Z,60.50
2018-12-11T19:16:32.171Z,60.00
2018-12-11T19:20:36.234Z,60.20
2018-12-11T19:24:40.460Z,63.90
2018-12-11T19:28:45.484Z,63.20
2018-12-11T19:32:51.517Z,65.20
2018-12-11T19:36:56.298Z,67.60
2018-12-11T19:41:00.474Z,66.20
2018-12-11T19:45:06.165Z,68.30
2018-12-11T19:49:10.254Z,65.60
2018-12-11T19:53:14.358Z,62.40
2018-12-11T19:57:18.525Z,63.90
2018-12-11T20:01:22.682Z,64.60
2018-12-11T20:14:48.747Z,66.80
2018-12-11T20:23:48.020Z,66.00
2018-12-11T20:32:30.726Z,66.20
2018-12-11T20:41:13.576Z,67.10
2018-12-11T20:45:17.656Z,66.60
2018-12-11T20:49:46.984Z,67.10
2018-12-11T20:53:51.083Z,67.40
2018-12-11T21:06:50.709Z,66.10
2018-12-11T21:10:54.793Z,67.10
2018-12-11T21:14:58.874Z,67.00
2018-12-11T21:23:48.659Z,66.80
2018-12-11T21:32:48.434Z,66.10
2018-12-11T21:36:52.517Z,66.00
2018-12-11T21:40:56.631Z,66.40
2018-12-11T21:45:00.723Z,66.50
2018-12-11T21:49:04.833Z,66.70
2018-12-11T21:53:08.930Z,66.70
2018-12-11T21:57:13.033Z,67.00
2018-12-11T22:01:17.117Z,67.00
2018-12-11T22:05:21.248Z,66.70
2018-12-11T22:09:49.851Z,65.60
2018-12-11T22:13:53.917Z,65.60
2018-12-11T22:17:58.001Z,65.80
2018-12-11T22:22:02.881Z,65.90
2018-12-11T22:26:06.975Z,66.20
2018-12-11T22:30:11.064Z,66.20
2018-12-11T22:34:15.143Z,65.60
2018-12-11T22:38:47.678Z,65.70
2018-12-11T22:42:51.858Z,65.70
2018-12-11T22:46:55.974Z,65.20
2018-12-11T22:51:00.042Z,64.90
2018-12-11T22:55:04.952Z,65.10
2018-12-11T22:59:09.037Z,64.80
2018-12-11T23:03:13.118Z,64.50
2018-12-11T23:07:17.205Z,64.80
2018-12-11T23:11:47.276Z,64.40
2018-12-11T23:15:51.359Z,64.40
2018-12-11T23:19:55.439Z,64.90
2018-12-11T23:23:59.581Z,65.00
2018-12-11T23:28:04.642Z,66.10
2018-12-11T23:32:08.778Z,66.90
2018-12-11T23:36:12.880Z,67.20
2018-12-11T23:40:17.065Z,66.20
2018-12-11T23:44:21.181Z,65.90
2018-12-11T23:48:26.357Z,66.50
2018-12-11T23:52:30.429Z,65.90
2018-12-11T23:56:34.517Z,65.40
